Time;durP1;ratioP1;P1;durP2;ratioP2;P2;SDS_P1;SDS_P2;PMS_P1;PMS_P2;Temp;Humidity;BMP_temperature;BMP_pressure;BME280_temperature;BME280_humidity;BME280_pressure;Samples;Min_cycle;Max_cycle;Signal;HPM_P1;HPM_P2
2023/07/19 00:00:21;;;;;;;9.37;4.57;;;;;;;;;;5049560;28;20435;-84
2023/07/19 00:02:47;;;;;;;10.03;3.77;;;;;;;;;;5040351;28;20450;-86
2023/07/19 00:05:13;;;;;;;9.50;5.13;;;;;;;;;;5046325;28;20446;-85
2023/07/19 00:07:39;;;;;;;6.80;5.07;;;;;;;;;;5045307;28;20427;-82
2023/07/19 00:10:05;;;;;;;5.53;3.93;;;18.70;99.90;;;;;;5045506;28;20439;-85
2023/07/19 00:12:32;;;;;;;9.13;4.80;;;18.70;99.90;;;;;;5034027;28;21051;-84
2023/07/19 00:14:58;;;;;;;7.57;4.93;;;;;;;;;;5043757;28;20978;-85
2023/07/19 00:17:24;;;;;;;12.10;4.67;;;;;;;;;;5043420;28;20441;-85
2023/07/19 00:19:50;;;;;;;7.67;4.83;;;;;;;;;;5046410;28;20905;-84
2023/07/19 00:22:16;;;;;;;9.30;4.60;;;;;;;;;;5047610;28;20915;-83
2023/07/19 00:24:42;;;;;;;6.97;4.10;;;;;;;;;;5043251;28;20460;-85
2023/07/19 00:27:08;;;;;;;5.67;4.00;;;;;;;;;;5058111;28;20432;-82
2023/07/19 00:29:34;;;;;;;7.03;5.10;;;;;;;;;;5045834;28;20423;-83
2023/07/19 00:31:59;;;;;;;9.20;5.30;;;;;;;;;;5039928;28;20443;-83
2023/07/19 00:34:25;;;;;;;6.50;4.20;;;;;;;;;;5041249;28;20866;-84
2023/07/19 00:36:51;;;;;;;11.00;5.07;;;;;;;;;;5044992;28;20499;-86
2023/07/19 00:39:17;;;;;;;5.00;3.90;;;;;;;;;;5046444;28;20515;-85
2023/07/19 00:41:43;;;;;;;6.30;4.40;;;;;;;;;;5041662;28;20460;-87
2023/07/19 00:44:09;;;;;;;5.10;4.03;;;;;;;;;;5044561;28;20498;-83
2023/07/19 00:46:35;;;;;;;4.43;3.57;;;;;;;;;;5043770;28;20435;-84
2023/07/19 00:49:01;;;;;;;9.20;4.20;;;;;;;;;;5041959;28;20451;-85
2023/07/19 00:51:27;;;;;;;6.83;4.40;;;;;;;;;;5053266;28;20407;-83
2023/07/19 00:53:54;;;;;;;5.60;4.50;;;18.60;99.90;;;;;;5053467;28;20489;-83
2023/07/19 00:56:21;;;;;;;4.60;4.00;;;18.60;99.90;;;;;;5045698;28;20432;-84
2023/07/19 00:58:51;;;;;;;6.20;4.23;;;18.60;99.90;;;;;;5043714;28;20458;-82
2023/07/19 01:01:17;;;;;;;6.03;3.70;;;;;;;;;;5027917;28;20434;-83
2023/07/19 01:03:43;;;;;;;4.87;2.83;;;;;;;;;;5040710;28;20848;-85
2023/07/19 01:06:09;;;;;;;4.40;3.63;;;;;;;;;;5039639;28;20431;-85
2023/07/19 01:08:35;;;;;;;5.80;3.73;;;;;;;;;;5042351;28;20474;-84
2023/07/19 01:11:01;;;;;;;5.73;3.37;;;;;;;;;;5039883;28;21183;-84
2023/07/19 01:13:27;;;;;;;6.00;3.80;;;;;;;;;;5043275;28;20477;-83
2023/07/19 01:15:53;;;;;;;7.03;3.83;;;;;;;;;;5045086;28;21476;-84
2023/07/19 01:18:19;;;;;;;6.90;4.47;;;;;;;;;;5040275;28;20431;-83
2023/07/19 01:20:46;;;;;;;6.03;3.70;;;;;;;;;;5036574;28;20431;-85
2023/07/19 01:23:12;;;;;;;5.63;3.97;;;;;;;;;;5036596;28;20528;-83
2023/07/19 01:25:38;;;;;;;5.93;3.70;;;;;;;;;;5037310;28;20482;-84
2023/07/19 01:28:04;;;;;;;11.37;5.83;;;;;;;;;;5037010;28;20525;-83
2023/07/19 01:30:30;;;;;;;6.80;3.80;;;;;;;;;;5035813;28;20486;-83
2023/07/19 01:32:56;;;;;;;5.00;3.47;;;;;;;;;;5042930;28;20516;-82
2023/07/19 01:35:22;;;;;;;7.90;4.40;;;18.20;99.90;;;;;;5045455;28;20449;-83
2023/07/19 01:37:48;;;;;;;4.60;3.33;;;;;;;;;;5046725;28;20458;-82
2023/07/19 01:40:14;;;;;;;6.27;4.00;;;;;;;;;;5046620;28;20767;-84
2023/07/19 01:42:41;;;;;;;8.30;4.50;;;;;;;;;;5046912;28;20447;-85
2023/07/19 01:45:07;;;;;;;7.27;4.30;;;;;;;;;;5045099;28;20463;-84
2023/07/19 01:47:33;;;;;;;6.23;4.53;;;;;;;;;;5045392;28;21277;-84
2023/07/19 01:49:59;;;;;;;6.30;4.80;;;;;;;;;;5044633;28;20485;-84
2023/07/19 01:52:25;;;;;;;6.20;4.07;;;;;;;;;;5044270;28;20444;-84
2023/07/19 01:54:51;;;;;;;8.63;4.70;;;;;;;;;;5043010;28;20470;-84
2023/07/19 01:57:17;;;;;;;6.53;4.37;;;17.90;99.90;;;;;;5046637;28;20773;-85
2023/07/19 01:59:43;;;;;;;6.43;3.97;;;;;;;;;;5043618;28;20439;-83
2023/07/19 02:02:09;;;;;;;7.40;4.13;;;;;;;;;;5044861;28;20423;-84
2023/07/19 02:04:35;;;;;;;6.17;3.80;;;;;;;;;;5046060;28;20521;-85
2023/07/19 02:07:01;;;;;;;7.43;4.40;;;;;;;;;;5047128;28;20444;-86
2023/07/19 02:09:27;;;;;;;9.20;4.40;;;;;;;;;;5039033;28;20839;-85
2023/07/19 02:11:52;;;;;;;5.93;3.90;;;;;;;;;;5044459;28;20443;-84
2023/07/19 02:14:19;;;;;;;10.53;5.30;;;;;;;;;;5045133;28;20478;-85
2023/07/19 02:16:45;;;;;;;8.10;4.00;;;;;;;;;;5045602;28;20426;-85
2023/07/19 02:19:11;;;;;;;7.17;4.30;;;;;;;;;;5047935;28;20427;-84
2023/07/19 02:21:37;;;;;;;9.80;4.83;;;;;;;;;;5044327;28;20491;-85
2023/07/19 02:24:03;;;;;;;11.90;4.17;;;;;;;;;;5045577;28;20513;-84
2023/07/19 02:26:29;;;;;;;6.43;3.50;;;;;;;;;;5045301;28;20439;-84
2023/07/19 02:28:54;;;;;;;8.40;3.60;;;;;;;;;;5043178;28;20834;-85
2023/07/19 02:31:20;;;;;;;6.40;4.10;;;;;;;;;;5048591;28;20451;-84
2023/07/19 02:33:46;;;;;;;9.17;4.57;;;;;;;;;;5044020;28;20490;-85
2023/07/19 02:36:12;;;;;;;6.13;4.00;;;;;;;;;;5036799;28;20435;-83
2023/07/19 02:38:38;;;;;;;7.20;3.93;;;;;;;;;;5053932;28;20919;-84
2023/07/19 02:41:04;;;;;;;10.67;4.90;;;;;;;;;;5042483;28;20435;-84
2023/07/19 02:43:30;;;;;;;8.00;5.07;;;;;;;;;;5046657;28;20509;-84
2023/07/19 02:45:56;;;;;;;6.47;4.37;;;;;;;;;;5039014;28;20501;-86
2023/07/19 02:48:23;;;;;;;9.73;5.00;;;;;;;;;;5049189;28;20462;-85
2023/07/19 02:50:49;;;;;;;7.80;4.23;;;17.60;99.90;;;;;;5037352;28;20436;-84
2023/07/19 02:53:15;;;;;;;6.10;3.80;;;;;;;;;;5037685;28;20482;-84
2023/07/19 02:55:45;;;;;;;7.67;4.80;;;17.60;99.90;;;;;;5037108;28;20432;-86
2023/07/19 02:58:11;;;;;;;18.27;5.30;;;;;;;;;;5038543;28;20447;-82
2023/07/19 03:00:43;;;;;;;6.20;4.57;;;17.70;99.90;;;;;;5041406;28;20439;-87
2023/07/19 03:03:10;;;;;;;6.90;4.50;;;17.70;99.90;;;;;;5037044;28;20563;-87
2023/07/19 03:05:39;;;;;;;12.20;6.37;;;;;;;;;;5039918;28;20435;-86
2023/07/19 03:08:06;;;;;;;7.73;5.27;;;;;;;;;;5037531;28;20442;-84
2023/07/19 03:10:32;;;;;;;8.67;4.80;;;;;;;;;;5054331;28;20467;-84
2023/07/19 03:12:57;;;;;;;8.03;4.10;;;;;;;;;;5034261;28;21019;-83
2023/07/19 03:15:23;;;;;;;7.57;4.80;;;;;;;;;;5039553;28;20519;-84
2023/07/19 03:17:49;;;;;;;5.80;4.50;;;;;;;;;;5054021;28;20454;-86
2023/07/19 03:20:15;;;;;;;7.80;4.97;;;;;;;;;;5037455;28;21031;-85
2023/07/19 03:22:41;;;;;;;7.73;4.40;;;;;;;;;;5047901;28;20453;-85
2023/07/19 03:25:07;;;;;;;7.50;4.60;;;17.90;99.90;;;;;;5050389;28;20443;-86
2023/07/19 03:27:33;;;;;;;7.37;4.30;;;;;;;;;;5055072;28;20512;-83
2023/07/19 03:29:59;;;;;;;6.90;4.70;;;;;;;;;;5042317;28;20189;-85
2023/07/19 03:32:28;;;;;;;9.67;5.43;;;;;;;;;;5037266;28;21167;-85
2023/07/19 03:34:53;;;;;;;5.83;4.57;;;;;;;;;;5041428;28;20517;-85
2023/07/19 03:37:19;;;;;;;9.73;5.23;;;;;;;;;;5044095;28;20478;-85
2023/07/19 03:39:45;;;;;;;10.10;4.53;;;;;;;;;;5034167;28;20436;-85
2023/07/19 03:42:11;;;;;;;9.27;4.90;;;;;;;;;;5043723;28;20429;-84
2023/07/19 03:44:37;;;;;;;10.27;4.97;;;;;;;;;;5043238;28;20463;-83
2023/07/19 03:47:03;;;;;;;8.30;4.63;;;;;;;;;;5045719;28;20479;-84
2023/07/19 03:49:29;;;;;;;5.63;4.63;;;;;;;;;;5047469;28;20807;-83
2023/07/19 03:51:55;;;;;;;7.47;4.87;;;;;;;;;;5046271;28;20439;-84
2023/07/19 03:54:21;;;;;;;7.40;5.50;;;;;;;;;;5046035;28;20477;-83
2023/07/19 03:56:47;;;;;;;12.87;5.40;;;;;;;;;;5043656;28;20423;-83
2023/07/19 03:59:13;;;;;;;9.73;4.27;;;;;;;;;;5045884;28;20789;-85
2023/07/19 04:01:39;;;;;;;6.07;4.20;;;;;;;;;;5041645;28;20427;-83
2023/07/19 04:04:05;;;;;;;11.53;5.80;;;;;;;;;;5033446;28;20508;-84
2023/07/19 04:06:31;;;;;;;8.13;4.70;;;;;;;;;;5048019;28;20439;-84
2023/07/19 04:08:57;;;;;;;9.63;4.60;;;;;;;;;;5046939;28;20442;-85
2023/07/19 04:11:23;;;;;;;14.00;4.90;;;;;;;;;;5043276;28;20864;-85
2023/07/19 04:13:50;;;;;;;6.10;4.30;;;;;;;;;;5043613;28;20475;-85
2023/07/19 04:16:16;;;;;;;9.40;5.93;;;;;;;;;;5030578;28;20499;-83
2023/07/19 04:18:42;;;;;;;9.40;4.87;;;;;;;;;;5033529;28;20469;-84
2023/07/19 04:21:09;;;;;;;9.73;4.63;;;;;;;;;;5028790;28;20435;-84
2023/07/19 04:23:35;;;;;;;6.63;4.50;;;;;;;;;;5040057;28;20455;-85
2023/07/19 04:26:01;;;;;;;17.27;5.33;;;;;;;;;;5036758;28;20909;-82
2023/07/19 04:28:27;;;;;;;7.73;5.33;;;;;;;;;;5029962;28;21507;-86
2023/07/19 04:30:53;;;;;;;6.00;4.30;;;;;;;;;;5058474;28;20447;-85
2023/07/19 04:33:19;;;;;;;6.93;4.60;;;;;;;;;;5042518;28;20950;-86
2023/07/19 04:35:47;;;;;;;9.20;4.90;;;;;;;;;;5042671;28;20427;-84
2023/07/19 04:38:13;;;;;;;5.87;3.97;;;;;;;;;;5048581;28;21046;-85
2023/07/19 04:40:39;;;;;;;7.93;4.63;;;;;;;;;;5042391;28;20439;-84
2023/07/19 04:43:05;;;;;;;9.60;5.27;;;;;;;;;;5044100;28;20477;-87
2023/07/19 04:45:31;;;;;;;7.30;4.70;;;;;;;;;;5039841;28;20432;-84
2023/07/19 04:47:57;;;;;;;8.80;5.10;;;;;;;;;;5042246;28;20443;-85
2023/07/19 04:50:24;;;;;;;7.33;5.27;;;;;;;;;;5047573;28;20435;-86
2023/07/19 04:52:50;;;;;;;9.90;5.40;;;;;;;;;;5066917;28;20466;-88
2023/07/19 04:55:16;;;;;;;16.40;4.97;;;;;;;;;;5050277;28;20456;-86
2023/07/19 04:57:42;;;;;;;8.63;4.77;;;;;;;;;;5052421;28;20935;-86
2023/07/19 05:00:11;;;;;;;8.90;5.70;;;22.40;99.90;;;;;;5047492;28;20423;-85
2023/07/19 05:02:37;;;;;;;10.13;6.20;;;;;;;;;;5050332;28;20467;-88
2023/07/19 05:05:05;;;;;;;6.63;4.67;;;23.00;99.90;;;;;;5048523;28;20458;-86
2023/07/19 05:07:31;;;;;;;11.70;5.90;;;;;;;;;;5047796;28;20447;-86
2023/07/19 05:09:57;;;;;;;9.80;5.80;;;;;;;;;;5047931;28;20435;-86
2023/07/19 05:12:23;;;;;;;9.23;6.67;;;;;;;;;;5050620;28;20943;-88
2023/07/19 05:14:49;;;;;;;12.07;5.23;;;;;;;;;;5048406;28;20546;-85
2023/07/19 05:17:15;;;;;;;10.20;6.13;;;;;;;;;;5046234;28;20815;-83
2023/07/19 05:19:41;;;;;;;13.03;5.90;;;;;;;;;;5048558;28;20487;-86
2023/07/19 05:22:07;;;;;;;12.23;6.10;;;;;;;;;;5048797;28;20481;-86
2023/07/19 05:24:33;;;;;;;7.53;5.17;;;;;;;;;;5038351;28;20960;-87
2023/07/19 05:27:00;;;;;;;6.83;5.40;;;31.60;93.10;;;;;;5049006;28;20446;-85
2023/07/19 05:29:25;;;;;;;8.10;5.77;;;;;;;;;;5044258;28;20453;-86
2023/07/19 05:31:51;;;;;;;9.83;6.10;;;;;;;;;;5046571;28;20457;-85
2023/07/19 05:34:17;;;;;;;9.50;5.70;;;;;;;;;;5047892;28;20569;-86
2023/07/19 05:36:43;;;;;;;9.23;6.23;;;;;;;;;;5047817;28;20431;-86
2023/07/19 05:39:09;;;;;;;12.53;6.13;;;;;;;;;;5053956;28;20405;-85
2023/07/19 05:41:35;;;;;;;7.97;5.40;;;;;;;;;;5048616;28;20425;-86
2023/07/19 05:44:01;;;;;;;10.63;6.50;;;;;;;;;;5045040;28;20448;-85
2023/07/19 05:46:27;;;;;;;12.07;5.80;;;;;;;;;;5047935;28;20458;-88
2023/07/19 05:48:53;;;;;;;7.93;5.60;;;;;;;;;;5063035;28;20549;-87
2023/07/19 05:51:19;;;;;;;7.57;6.10;;;;;;;;;;5050284;28;21216;-87
2023/07/19 05:53:45;;;;;;;9.10;5.70;;;;;;;;;;5048864;28;20585;-86
2023/07/19 05:56:11;;;;;;;13.40;6.93;;;;;;;;;;5044850;28;20565;-86
2023/07/19 05:58:38;;;;;;;8.67;6.80;;;;;;;;;;5046534;28;20447;-85
2023/07/19 06:01:07;;;;;;;9.60;5.73;;;;;;;;;;5044251;28;20461;-87
2023/07/19 06:03:33;;;;;;;10.47;6.13;;;;;;;;;;5046677;28;20540;-86
2023/07/19 06:06:03;;;;;;;9.37;6.27;;;32.90;84.40;;;;;;5048654;28;20471;-87
2023/07/19 06:08:29;;;;;;;7.20;5.93;;;;;;;;;;5037709;28;20432;-86
2023/07/19 06:10:55;;;;;;;5.90;5.30;;;;;;;;;;5046619;28;20429;-86
2023/07/19 06:13:21;;;;;;;5.57;4.50;;;;;;;;;;5045680;28;20466;-85
2023/07/19 06:15:47;;;;;;;5.90;4.60;;;;;;;;;;5046577;28;20444;-86
2023/07/19 06:18:13;;;;;;;12.53;5.00;;;28.20;88.30;;;;;;5046999;28;20459;-87
2023/07/19 06:20:39;;;;;;;6.23;4.47;;;;;;;;;;5045604;28;20527;-87
2023/07/19 06:23:05;;;;;;;9.33;4.80;;;;;;;;;;5055906;28;20515;-85
2023/07/19 06:25:31;;;;;;;9.20;5.07;;;;;;;;;;5045469;28;21020;-85
2023/07/19 06:27:57;;;;;;;4.83;4.33;;;;;;;;;;5046074;28;20453;-84
2023/07/19 06:30:23;;;;;;;6.20;4.43;;;;;;;;;;5043508;28;20515;-86
2023/07/19 06:32:49;;;;;;;7.47;4.60;;;;;;;;;;5045418;28;20794;-86
2023/07/19 06:35:15;;;;;;;5.77;3.73;;;;;;;;;;5047435;28;20462;-85
2023/07/19 06:37:41;;;;;;;6.30;4.07;;;;;;;;;;5045101;28;20438;-86
2023/07/19 06:40:07;;;;;;;9.07;4.50;;;;;;;;;;5044491;28;20458;-86
2023/07/19 06:42:33;;;;;;;6.23;4.87;;;;;;;;;;5038309;28;20538;-83
2023/07/19 06:44:59;;;;;;;7.30;4.33;;;;;;;;;;5035004;28;20480;-86
2023/07/19 06:47:29;;;;;;;8.47;4.43;;;;;;;;;;5044663;28;20442;-85
2023/07/19 06:49:56;;;;;;;5.47;3.97;;;28.20;89.60;;;;;;5047542;28;20423;-85
2023/07/19 06:52:23;;;;;;;4.27;3.00;;;;;;;;;;5048691;28;20434;-85
2023/07/19 06:54:49;;;;;;;6.83;4.53;;;;;;;;;;5046393;28;20478;-86
2023/07/19 06:57:15;;;;;;;13.27;3.87;;;;;;;;;;5044584;28;20422;-86
2023/07/19 06:59:40;;;;;;;8.70;4.57;;;;;;;;;;5060375;28;20552;-86
2023/07/19 07:02:06;;;;;;;7.03;4.40;;;;;;;;;;5046330;28;20991;-86
2023/07/19 07:04:32;;;;;;;6.13;3.93;;;;;;;;;;5045496;28;20545;-84
2023/07/19 07:06:58;;;;;;;5.17;4.03;;;;;;;;;;5061651;28;20439;-84
2023/07/19 07:09:25;;;;;;;11.87;3.60;;;;;;;;;;5044986;28;20430;-85
2023/07/19 07:11:51;;;;;;;5.80;4.17;;;;;;;;;;5041916;28;20465;-86
2023/07/19 07:14:17;;;;;;;8.80;4.23;;;;;;;;;;5042743;28;20523;-86
2023/07/19 07:16:43;;;;;;;7.33;3.83;;;;;;;;;;5046619;28;20433;-85
2023/07/19 07:19:10;;;;;;;6.30;3.97;;;;;;;;;;5060076;28;20424;-86
2023/07/19 07:21:36;;;;;;;8.10;4.30;;;;;;;;;;5043567;28;20441;-85
2023/07/19 07:24:02;;;;;;;5.67;4.13;;;;;;;;;;5042163;28;20480;-85
2023/07/19 07:26:28;;;;;;;5.53;3.83;;;;;;;;;;5044009;28;20978;-85
2023/07/19 07:28:54;;;;;;;11.57;3.70;;;;;;;;;;5045246;28;20549;-86
2023/07/19 07:31:20;;;;;;;10.17;4.30;;;;;;;;;;5044071;28;20455;-84
2023/07/19 07:33:46;;;;;;;7.17;3.10;;;;;;;;;;5043013;28;20475;-87
2023/07/19 07:36:12;;;;;;;9.43;4.47;;;;;;;;;;5043093;28;20525;-86
2023/07/19 07:38:38;;;;;;;6.80;3.63;;;;;;;;;;5045566;28;20432;-85
2023/07/19 07:41:11;;;;;;;12.23;3.97;;;29.30;79.20;;;;;;5044359;28;20431;-84
2023/07/19 07:43:37;;;;;;;7.80;4.30;;;;;;;;;;5054795;28;21290;-87
2023/07/19 07:46:03;;;;;;;5.10;4.07;;;;;;;;;;5057137;28;20433;-86
2023/07/19 07:48:30;;;;;;;7.97;4.63;;;;;;;;;;5055330;28;20430;-86
2023/07/19 07:50:55;;;;;;;6.60;4.00;;;;;;;;;;5042846;28;20431;-83
2023/07/19 07:53:22;;;;;;;5.73;3.87;;;;;;;;;;5044184;28;20475;-88
2023/07/19 07:55:51;;;;;;;6.37;3.43;;;31.30;84.10;;;;;;5054677;28;20420;-86
2023/07/19 07:58:17;;;;;;;4.27;3.27;;;;;;;;;;5042396;28;20451;-86
2023/07/19 08:00:43;;;;;;;6.47;3.53;;;;;;;;;;5043185;28;20432;-86
2023/07/19 08:03:09;;;;;;;4.60;3.53;;;;;;;;;;5054898;28;20990;-85
2023/07/19 08:05:36;;;;;;;4.80;3.00;;;;;;;;;;5042392;28;20440;-86
2023/07/19 08:08:04;;;;;;;4.73;3.47;;;29.90;74.70;;;;;;5041627;28;20523;-86
2023/07/19 08:10:30;;;;;;;7.80;2.97;;;;;;;;;;5055401;28;20438;-85
2023/07/19 08:12:55;;;;;;;6.90;3.70;;;;;;;;;;5045645;28;20504;-87
2023/07/19 08:15:23;;;;;;;5.40;4.10;;;;;;;;;;5056632;28;20519;-86
2023/07/19 08:17:49;;;;;;;9.07;3.37;;;;;;;;;;5035610;28;20770;-84
2023/07/19 08:20:15;;;;;;;7.80;4.10;;;;;;;;;;5049541;28;20436;-85
2023/07/19 08:22:41;;;;;;;9.10;3.30;;;;;;;;;;5051196;28;20436;-85
2023/07/19 08:25:07;;;;;;;4.50;3.13;;;;;;;;;;5056456;28;20455;-84
2023/07/19 08:27:33;;;;;;;5.63;3.63;;;;;;;;;;5042905;28;21437;-85
2023/07/19 08:30:00;;;;;;;6.47;4.03;;;;;;;;;;5044983;28;20440;-85
2023/07/19 08:32:26;;;;;;;7.80;3.63;;;;;;;;;;5042658;28;20437;-86
2023/07/19 08:34:52;;;;;;;5.57;3.63;;;;;;;;;;5043631;28;20559;-87
2023/07/19 08:37:18;;;;;;;7.67;2.90;;;;;;;;;;5042876;28;20513;-85
2023/07/19 08:39:44;;;;;;;3.50;3.20;;;;;;;;;;5053746;28;20976;-85
2023/07/19 08:42:10;;;;;;;5.43;3.00;;;;;;;;;;5041583;28;20684;-85
2023/07/19 08:44:37;;;;;;;6.87;2.60;;;30.40;59.30;;;;;;5042765;28;20947;-85
2023/07/19 08:47:04;;;;;;;4.10;2.80;;;30.50;62.60;;;;;;5042835;28;20440;-85
2023/07/19 08:49:30;;;;;;;8.03;3.47;;;;;;;;;;5042500;28;20460;-86
2023/07/19 08:51:56;;;;;;;6.67;2.97;;;;;;;;;;5043922;28;20436;-85
2023/07/19 08:54:22;;;;;;;5.27;2.23;;;;;;;;;;5043770;28;20862;-86
2023/07/19 08:56:48;;;;;;;5.10;2.43;;;;;;;;;;5046851;28;20425;-84
2023/07/19 08:59:14;;;;;;;11.73;3.23;;;;;;;;;;5045889;28;20432;-85
2023/07/19 09:01:40;;;;;;;10.73;2.87;;;;;;;;;;5044092;28;20419;-85
2023/07/19 09:04:11;;;;;;;4.63;2.60;;;33.70;54.00;;;;;;5045358;28;20538;-84
2023/07/19 09:06:40;;;;;;;4.60;2.70;;;34.90;51.50;;;;;;5047497;28;20437;-85
2023/07/19 09:09:12;;;;;;;3.70;2.13;;;35.50;50.20;;;;;;5045553;28;20456;-85
2023/07/19 09:11:45;;;;;;;3.97;3.13;;;35.80;48.10;;;;;;5062851;28;20509;-86
2023/07/19 09:14:11;;;;;;;4.93;2.20;;;;;;;;;;5045794;28;20567;-84
2023/07/19 09:16:37;;;;;;;3.60;2.73;;;;;;;;;;5046873;28;20461;-85
2023/07/19 09:19:03;;;;;;;4.63;2.30;;;;;;;;;;5046657;28;20434;-84
2023/07/19 09:21:44;;;;;;;3.90;2.37;;;31.40;52.20;;;;;;5041667;28;20431;-85
2023/07/19 09:24:11;;;;;;;6.10;2.50;;;33.20;50.50;;;;;;5044492;28;20455;-84
2023/07/19 09:26:53;;;;;;;5.30;2.37;;;33.30;45.70;;;;;;5044778;28;20464;-85
2023/07/19 09:29:22;;;;;;;4.40;2.37;;;33.40;47.80;;;;;;5045809;28;20436;-86
2023/07/19 09:32:02;;;;;;;4.17;2.37;;;33.60;47.10;;;;;;5034577;28;20499;-86
2023/07/19 09:34:33;;;;;;;3.17;2.30;;;34.10;46.90;;;;;;5046762;28;20474;-83
2023/07/19 09:36:59;;;;;;;3.13;2.53;;;;;;;;;;5057471;28;20490;-86
2023/07/19 09:39:25;;;;;;;4.23;2.20;;;;;;;;;;5046696;28;20441;-86
2023/07/19 09:41:53;;;;;;;3.30;2.30;;;32.40;51.20;;;;;;5045244;28;20423;-85
2023/07/19 09:44:19;;;;;;;4.77;2.33;;;;;;;;;;5049486;28;20483;-86
2023/07/19 09:46:45;;;;;;;3.63;2.50;;;;;;;;;;5059717;28;20991;-86
2023/07/19 09:49:11;;;;;;;2.93;2.10;;;;;;;;;;5051811;28;21570;-86
2023/07/19 09:51:42;;;;;;;2.70;2.10;;;31.70;46.10;;;;;;5050590;28;20994;-87
2023/07/19 09:54:10;;;;;;;3.90;2.57;;;31.20;46.70;;;;;;5040754;28;20851;-86
2023/07/19 09:56:38;;;;;;;4.03;2.10;;;31.90;46.70;;;;;;5049810;28;21129;-85
2023/07/19 09:59:08;;;;;;;3.70;2.47;;;32.70;45.30;;;;;;5050582;28;20421;-84
2023/07/19 10:01:35;;;;;;;5.93;2.30;;;33.60;44.80;;;;;;5049106;28;20491;-85
2023/07/19 10:04:01;;;;;;;3.73;2.90;;;;;;;;;;5049326;28;20454;-84
2023/07/19 10:06:30;;;;;;;4.37;2.60;;;31.40;44.00;;;;;;5051864;28;20418;-85
2023/07/19 10:09:24;;;;;;;3.60;2.20;;;31.40;45.40;;;;;;5049070;28;20427;-86
2023/07/19 10:11:50;;;;;;;2.20;2.00;;;;;;;;;;5048018;28;20448;-86
2023/07/19 10:14:28;;;;;;;2.77;2.03;;;33.20;47.30;;;;;;5047934;28;20575;-85
2023/07/19 10:16:58;;;;;;;4.43;2.13;;;32.40;42.90;;;;;;5050360;28;20427;-86
2023/07/19 10:19:24;;;;;;;3.07;2.30;;;;;;;;;;5057657;28;20435;-85
2023/07/19 10:22:04;;;;;;;2.73;2.00;;;30.60;45.60;;;;;;5049078;28;20433;-85
2023/07/19 10:24:35;;;;;;;5.13;2.43;;;30.30;56.80;;;;;;5049257;28;20459;-85
2023/07/19 10:27:02;;;;;;;5.63;2.47;;;31.20;45.80;;;;;;5046072;28;20839;-85
2023/07/19 10:29:38;;;;;;;6.23;3.27;;;31.00;44.40;;;;;;5050517;28;20456;-86
2023/07/19 10:32:04;;;;;;;8.13;2.20;;;;;;;;;;5044525;28;20959;-85
2023/07/19 10:34:30;;;;;;;5.83;2.20;;;;;;;;;;5049649;28;20472;-85
2023/07/19 10:37:03;;;;;;;4.43;2.47;;;30.70;46.50;;;;;;5046895;28;20486;-84
2023/07/19 10:39:30;;;;;;;4.50;2.70;;;30.80;48.00;;;;;;5050290;28;20815;-84
2023/07/19 10:41:56;;;;;;;4.23;2.17;;;;;;;;;;5046740;28;20967;-84
2023/07/19 10:44:22;;;;;;;3.20;2.40;;;;;;;;;;5045655;28;20453;-86
2023/07/19 10:46:48;;;;;;;5.50;2.20;;;;;;;;;;5047516;28;21064;-85
2023/07/19 10:49:14;;;;;;;4.83;2.23;;;;;;;;;;5047800;28;20434;-85
2023/07/19 10:51:51;;;;;;;3.10;2.80;;;30.10;48.40;;;;;;5046155;28;20898;-85
2023/07/19 10:54:18;;;;;;;4.70;2.27;;;;;;;;;;5044950;28;20477;-86
2023/07/19 10:56:43;;;;;;;3.80;2.50;;;;;;;;;;5049600;28;20430;-85
2023/07/19 10:59:10;;;;;;;11.73;2.23;;;;;;;;;;5056908;28;20436;-83
2023/07/19 11:01:36;;;;;;;3.27;2.00;;;;;;;;;;5042302;28;21159;-83
2023/07/19 11:04:05;;;;;;;7.00;2.27;;;29.70;48.10;;;;;;5047640;28;20451;-83
2023/07/19 11:06:32;;;;;;;3.83;2.33;;;29.80;50.80;;;;;;5047214;28;20449;-85
2023/07/19 11:09:05;;;;;;;6.27;2.40;;;29.30;50.80;;;;;;5041614;28;20442;-84
2023/07/19 11:11:33;;;;;;;4.57;2.27;;;29.50;51.30;;;;;;5043780;28;20435;-85
2023/07/19 11:13:59;;;;;;;8.13;2.30;;;;;;;;;;5044575;28;20986;-85
2023/07/19 11:16:26;;;;;;;3.80;2.40;;;30.00;51.60;;;;;;5045489;28;20508;-86
2023/07/19 11:18:53;;;;;;;2.93;2.37;;;29.70;51.10;;;;;;5045395;28;20463;-86
2023/07/19 11:21:26;;;;;;;5.50;2.30;;;30.30;50.50;;;;;;5042432;28;20447;-84
2023/07/19 11:23:53;;;;;;;8.03;2.80;;;;;;;;;;5042725;28;20451;-86
2023/07/19 11:26:19;;;;;;;4.80;2.63;;;;;;;;;;5042681;28;20445;-87
2023/07/19 11:28:58;;;;;;;2.50;2.20;;;31.40;49.00;;;;;;5042683;28;20543;-85
2023/07/19 11:31:29;;;;;;;5.57;2.50;;;31.50;48.90;;;;;;5044005;28;20568;-85
2023/07/19 11:34:07;;;;;;;3.73;2.50;;;31.20;47.50;;;;;;5043413;28;20476;-85
2023/07/19 11:36:34;;;;;;;3.73;2.53;;;30.80;48.40;;;;;;5043274;28;20724;-84
2023/07/19 11:39:00;;;;;;;8.53;2.40;;;30.20;49.90;;;;;;5043583;28;20443;-85
2023/07/19 11:41:26;;;;;;;5.30;2.30;;;;;;;;;;5044178;28;20423;-85
2023/07/19 11:43:52;;;;;;;6.40;2.50;;;;;;;;;;5044919;28;20216;-85
2023/07/19 11:46:18;;;;;;;3.97;2.30;;;;;;;;;;5045568;28;20420;-85
2023/07/19 11:48:47;;;;;;;4.20;2.80;;;;;;;;;;5039939;28;20950;-84
2023/07/19 11:51:14;;;;;;;4.30;2.33;;;30.00;51.00;;;;;;5044873;28;20438;-84
2023/07/19 11:53:40;;;;;;;10.30;2.70;;;;;;;;;;5044206;28;20474;-84
2023/07/19 11:56:06;;;;;;;3.60;2.70;;;;;;;;;;5044410;28;20436;-86
2023/07/19 11:58:35;;;;;;;5.37;2.77;;;;;;;;;;5044300;28;20424;-84
2023/07/19 12:01:02;;;;;;;7.03;2.70;;;29.30;50.80;;;;;;5043082;28;20428;-85
2023/07/19 12:03:28;;;;;;;5.43;2.80;;;;;;;;;;5044022;28;20461;-86
2023/07/19 12:05:54;;;;;;;3.40;2.70;;;;;;;;;;5043296;28;20488;-85
2023/07/19 12:08:20;;;;;;;5.37;2.90;;;;;;;;;;5043097;28;20508;-85
2023/07/19 12:10:46;;;;;;;6.10;2.20;;;;;;;;;;5059649;28;20435;-87
2023/07/19 12:13:12;;;;;;;7.73;2.50;;;;;;;;;;5053646;28;20466;-85
2023/07/19 12:15:38;;;;;;;9.30;3.10;;;;;;;;;;5056847;28;20476;-87
2023/07/19 12:18:05;;;;;;;6.13;2.90;;;;;;;;;;5039963;28;20510;-85
2023/07/19 12:20:31;;;;;;;7.40;3.07;;;30.30;62.00;;;;;;5052936;28;20419;-84
2023/07/19 12:22:57;;;;;;;4.70;2.23;;;;;;;;;;5043431;28;20426;-83
2023/07/19 12:25:24;;;;;;;9.10;2.63;;;;;;;;;;5041043;28;20431;-85
2023/07/19 12:27:54;;;;;;;8.60;2.83;;;;;;;;;;5043210;28;20417;-85
2023/07/19 12:30:21;;;;;;;5.67;3.00;;;;;;;;;;5043436;28;20440;-85
2023/07/19 12:32:47;;;;;;;6.93;2.93;;;;;;;;;;5039487;28;20427;-86
2023/07/19 12:35:13;;;;;;;6.03;2.87;;;;;;;;;;5058099;28;20452;-86
2023/07/19 12:37:39;;;;;;;7.33;3.37;;;;;;;;;;5042400;28;20435;-87
2023/07/19 12:40:08;;;;;;;14.33;4.17;;;30.70;50.40;;;;;;5045251;28;20507;-84
2023/07/19 12:42:34;;;;;;;7.13;2.90;;;;;;;;;;5042802;28;20821;-85
2023/07/19 12:45:00;;;;;;;7.53;3.20;;;;;;;;;;5037743;28;20452;-85
2023/07/19 12:47:27;;;;;;;5.90;4.00;;;;;;;;;;5042889;28;21238;-85
2023/07/19 12:49:53;;;;;;;17.53;3.97;;;;;;;;;;5042746;28;20459;-85
2023/07/19 12:52:19;;;;;;;6.63;3.67;;;29.60;54.50;;;;;;5044136;28;20915;-85
2023/07/19 12:54:45;;;;;;;4.80;3.50;;;;;;;;;;5033809;28;21187;-85
2023/07/19 12:57:12;;;;;;;5.40;3.40;;;;;;;;;;5044019;28;20431;-85
2023/07/19 12:59:38;;;;;;;7.50;3.40;;;;;;;;;;5048475;28;20449;-87
2023/07/19 13:02:04;;;;;;;4.30;3.40;;;29.90;53.40;;;;;;5043740;28;20440;-85
2023/07/19 13:04:31;;;;;;;7.03;3.60;;;;;;;;;;5042181;28;20459;-85
2023/07/19 13:06:57;;;;;;;8.43;4.37;;;;;;;;;;5043997;28;20460;-86
2023/07/19 13:09:24;;;;;;;6.23;3.40;;;;;;;;;;5035648;28;20431;-86
2023/07/19 13:11:50;;;;;;;12.03;3.10;;;;;;;;;;5046523;28;20933;-86
2023/07/19 13:14:16;;;;;;;6.60;2.70;;;;;;;;;;5049288;28;20740;-85
2023/07/19 13:16:41;;;;;;;5.70;3.03;;;;;;;;;;5047470;28;20499;-86
2023/07/19 13:19:09;;;;;;;8.70;3.57;;;;;;;;;;5046472;28;20437;-85
2023/07/19 13:21:35;;;;;;;7.97;3.50;;;;;;;;;;5044925;28;20956;-85
2023/07/19 13:24:01;;;;;;;4.47;2.93;;;;;;;;;;5043946;28;20454;-83
2023/07/19 13:26:27;;;;;;;7.93;3.73;;;;;;;;;;5041826;28;20958;-85
2023/07/19 13:28:54;;;;;;;5.90;3.07;;;;;;;;;;5046874;28;20441;-86
2023/07/19 13:31:20;;;;;;;6.07;3.63;;;;;;;;;;5051924;28;20449;-85
2023/07/19 13:33:46;;;;;;;6.83;3.17;;;;;;;;;;5047568;28;20467;-84
2023/07/19 13:36:12;;;;;;;4.57;3.10;;;;;;;;;;5047170;28;20433;-86
2023/07/19 13:38:38;;;;;;;5.00;3.10;;;;;;;;;;5047830;28;20458;-85
2023/07/19 13:41:04;;;;;;;6.07;3.73;;;;;;;;;;5060475;28;20534;-86
2023/07/19 13:43:30;;;;;;;7.00;3.53;;;;;;;;;;5048560;28;20427;-85
2023/07/19 13:45:56;;;;;;;7.73;3.60;;;;;;;;;;5054259;28;20483;-85
2023/07/19 13:48:22;;;;;;;5.53;3.23;;;;;;;;;;5048531;28;20506;-86
2023/07/19 13:50:48;;;;;;;5.20;3.90;;;;;;;;;;5048069;28;20517;-86
2023/07/19 13:53:14;;;;;;;9.37;3.80;;;;;;;;;;5042595;28;20554;-85
2023/07/19 13:55:40;;;;;;;5.77;3.73;;;;;;;;;;5044567;28;21010;-85
2023/07/19 13:58:07;;;;;;;5.93;3.70;;;;;;;;;;5048524;28;20454;-85
2023/07/19 14:00:33;;;;;;;4.40;3.77;;;27.90;88.80;;;;;;5062614;28;21004;-85
2023/07/19 14:02:59;;;;;;;6.17;3.80;;;;;;;;;;5044716;28;20463;-84
2023/07/19 14:05:25;;;;;;;8.90;3.80;;;;;;;;;;5045804;28;20465;-85
2023/07/19 14:07:52;;;;;;;12.63;4.70;;;;;;;;;;5047411;28;20420;-86
2023/07/19 14:10:17;;;;;;;8.43;4.03;;;27.90;90.60;;;;;;5044675;28;20426;-85
2023/07/19 14:12:43;;;;;;;6.50;4.30;;;;;;;;;;5046787;28;20427;-86